sensor_id;sensor_type;location;lat;lon;timestamp;pressure;altitude;pressure_sealevel;temperature;humidity
62524;BME280;53689;56.878;60.672;2022-11-15T00:00:17;95882.13;;;21.22;26.91
62524;BME280;53689;56.878;60.672;2022-11-15T00:03:03;95881.28;;;21.21;26.99
62524;BME280;53689;56.878;60.672;2022-11-15T00:05:49;95883.19;;;21.21;26.76
62524;BME280;53689;56.878;60.672;2022-11-15T00:08:36;95878.66;;;21.27;25.34
62524;BME280;53689;56.878;60.672;2022-11-15T00:11:22;95890.22;;;21.27;26.12
62524;BME280;53689;56.878;60.672;2022-11-15T00:14:08;95887.19;;;21.18;24.63
62524;BME280;53689;56.878;60.672;2022-11-15T00:16:54;95879.06;;;21.13;24.38
62524;BME280;53689;56.878;60.672;2022-11-15T00:19:40;95882.88;;;21.17;25.03
62524;BME280;53689;56.878;60.672;2022-11-15T00:22:31;95884.75;;;21.17;25.19
62524;BME280;53689;56.878;60.672;2022-11-15T00:25:18;95892.06;;;21.21;25.72
62524;BME280;53689;56.878;60.672;2022-11-15T00:28:04;95899.88;;;21.23;25.89
62524;BME280;53689;56.878;60.672;2022-11-15T00:30:50;95894.50;;;21.23;26.84
62524;BME280;53689;56.878;60.672;2022-11-15T00:33:37;95895.06;;;21.25;26.32
62524;BME280;53689;56.878;60.672;2022-11-15T00:36:23;95908.81;;;21.29;26.63
62524;BME280;53689;56.878;60.672;2022-11-15T00:39:08;95904.25;;;21.29;25.36
62524;BME280;53689;56.878;60.672;2022-11-15T00:41:56;95910.69;;;21.28;26.01
62524;BME280;53689;56.878;60.672;2022-11-15T00:44:42;95905.81;;;21.25;23.73
62524;BME280;53689;56.878;60.672;2022-11-15T00:47:28;95917.16;;;21.27;25.91
62524;BME280;53689;56.878;60.672;2022-11-15T00:50:14;95916.03;;;21.23;25.99
62524;BME280;53689;56.878;60.672;2022-11-15T00:53:00;95916.34;;;21.27;25.71
62524;BME280;53689;56.878;60.672;2022-11-15T00:55:46;95915.84;;;21.30;26.73
62524;BME280;53689;56.878;60.672;2022-11-15T00:58:34;95916.91;;;21.29;26.76
62524;BME280;53689;56.878;60.672;2022-11-15T01:01:20;95914.22;;;21.29;25.72
62524;BME280;53689;56.878;60.672;2022-11-15T01:04:05;95912.03;;;21.26;24.00
62524;BME280;53689;56.878;60.672;2022-11-15T01:06:51;95915.84;;;21.30;26.29
62524;BME280;53689;56.878;60.672;2022-11-15T01:09:37;95914.53;;;21.32;26.92
62524;BME280;53689;56.878;60.672;2022-11-15T01:12:23;95913.16;;;21.30;25.31
62524;BME280;53689;56.878;60.672;2022-11-15T01:15:10;95917.22;;;21.32;25.88
62524;BME280;53689;56.878;60.672;2022-11-15T01:17:56;95921.84;;;21.37;24.78
62524;BME280;53689;56.878;60.672;2022-11-15T01:20:42;95926.09;;;21.33;25.47
62524;BME280;53689;56.878;60.672;2022-11-15T01:23:28;95923.97;;;21.35;25.58
62524;BME280;53689;56.878;60.672;2022-11-15T01:26:15;95926.59;;;21.30;26.13
62524;BME280;53689;56.878;60.672;2022-11-15T01:29:01;95918.84;;;21.33;25.53
62524;BME280;53689;56.878;60.672;2022-11-15T01:31:49;95924.78;;;21.35;26.53
62524;BME280;53689;56.878;60.672;2022-11-15T01:34:35;95925.53;;;21.31;26.63
62524;BME280;53689;56.878;60.672;2022-11-15T01:37:21;95930.78;;;21.43;25.28
62524;BME280;53689;56.878;60.672;2022-11-15T01:40:08;95928.63;;;21.45;25.30
62524;BME280;53689;56.878;60.672;2022-11-15T01:42:54;95926.81;;;21.51;27.46
62524;BME280;53689;56.878;60.672;2022-11-15T01:45:41;95926.00;;;21.50;26.29
62524;BME280;53689;56.878;60.672;2022-11-15T01:48:31;95927.63;;;21.51;25.41
62524;BME280;53689;56.878;60.672;2022-11-15T01:51:20;95940.63;;;21.59;27.74
62524;BME280;53689;56.878;60.672;2022-11-15T01:54:13;95946.78;;;21.55;26.79
62524;BME280;53689;56.878;60.672;2022-11-15T01:57:02;95953.47;;;21.52;26.02
62524;BME280;53689;56.878;60.672;2022-11-15T01:59:50;95951.09;;;21.56;26.59
62524;BME280;53689;56.878;60.672;2022-11-15T02:02:37;95941.13;;;21.56;27.27
62524;BME280;53689;56.878;60.672;2022-11-15T02:05:25;95948.97;;;21.58;27.24
62524;BME280;53689;56.878;60.672;2022-11-15T02:08:11;95950.03;;;21.57;27.69
62524;BME280;53689;56.878;60.672;2022-11-15T02:10:57;95953.28;;;21.59;27.88
62524;BME280;53689;56.878;60.672;2022-11-15T02:13:43;95955.16;;;21.58;27.44
62524;BME280;53689;56.878;60.672;2022-11-15T02:16:35;95964.28;;;21.57;27.56
62524;BME280;53689;56.878;60.672;2022-11-15T02:19:46;95957.59;;;21.60;26.25
62524;BME280;53689;56.878;60.672;2022-11-15T02:22:50;95967.03;;;21.62;27.34
62524;BME280;53689;56.878;60.672;2022-11-15T02:25:40;95967.03;;;21.62;27.07
62524;BME280;53689;56.878;60.672;2022-11-15T02:28:43;95971.59;;;21.62;28.09
62524;BME280;53689;56.878;60.672;2022-11-15T02:31:36;95973.25;;;21.63;26.82
62524;BME280;53689;56.878;60.672;2022-11-15T02:34:32;95969.22;;;21.66;26.80
62524;BME280;53689;56.878;60.672;2022-11-15T02:37:26;95975.13;;;21.62;27.42
62524;BME280;53689;56.878;60.672;2022-11-15T02:40:20;95975.38;;;21.61;27.56
62524;BME280;53689;56.878;60.672;2022-11-15T02:43:10;95985.34;;;21.60;27.64
62524;BME280;53689;56.878;60.672;2022-11-15T02:46:02;95983.19;;;21.62;27.74
62524;BME280;53689;56.878;60.672;2022-11-15T02:48:54;95993.16;;;21.62;27.31
62524;BME280;53689;56.878;60.672;2022-11-15T02:51:41;95982.09;;;21.58;27.13
62524;BME280;53689;56.878;60.672;2022-11-15T02:54:30;95989.59;;;21.56;27.40
62524;BME280;53689;56.878;60.672;2022-11-15T02:57:18;95996.16;;;20.59;22.24
62524;BME280;53689;56.878;60.672;2022-11-15T03:00:11;96006.16;;;21.20;26.24
62524;BME280;53689;56.878;60.672;2022-11-15T03:03:18;96004.75;;;21.40;27.28
62524;BME280;53689;56.878;60.672;2022-11-15T03:06:18;96007.97;;;21.37;27.23
62524;BME280;53689;56.878;60.672;2022-11-15T03:09:10;96016.41;;;21.46;26.82
62524;BME280;53689;56.878;60.672;2022-11-15T03:12:05;96015.00;;;21.43;26.82
62524;BME280;53689;56.878;60.672;2022-11-15T03:14:56;96015.59;;;21.45;27.42
62524;BME280;53689;56.878;60.672;2022-11-15T03:17:49;96018.03;;;21.47;27.23
62524;BME280;53689;56.878;60.672;2022-11-15T03:20:39;96027.47;;;21.49;27.99
62524;BME280;53689;56.878;60.672;2022-11-15T03:23:28;96026.84;;;21.42;27.51
62524;BME280;53689;56.878;60.672;2022-11-15T03:26:16;96030.25;;;21.55;25.44
62524;BME280;53689;56.878;60.672;2022-11-15T03:29:09;96031.34;;;21.59;27.52
62524;BME280;53689;56.878;60.672;2022-11-15T03:32:00;96037.81;;;21.58;27.56
62524;BME280;53689;56.878;60.672;2022-11-15T03:34:51;96034.59;;;21.61;27.98
62524;BME280;53689;56.878;60.672;2022-11-15T03:37:41;96038.38;;;21.60;27.65
62524;BME280;53689;56.878;60.672;2022-11-15T03:40:36;96047.00;;;21.62;27.54
62524;BME280;53689;56.878;60.672;2022-11-15T03:43:30;96046.72;;;21.58;27.11
62524;BME280;53689;56.878;60.672;2022-11-15T03:46:23;96050.53;;;21.62;28.07
62524;BME280;53689;56.878;60.672;2022-11-15T03:49:14;96057.28;;;21.65;28.02
62524;BME280;53689;56.878;60.672;2022-11-15T03:52:04;96060.72;;;21.60;28.06
62524;BME280;53689;56.878;60.672;2022-11-15T03:54:52;96067.50;;;21.63;28.09
62524;BME280;53689;56.878;60.672;2022-11-15T03:57:41;96060.19;;;21.58;27.62
62524;BME280;53689;56.878;60.672;2022-11-15T04:00:28;96058.03;;;21.60;27.42
62524;BME280;53689;56.878;60.672;2022-11-15T04:03:14;96066.69;;;21.62;26.76
62524;BME280;53689;56.878;60.672;2022-11-15T04:06:00;96068.53;;;21.62;28.71
62524;BME280;53689;56.878;60.672;2022-11-15T04:08:46;96077.75;;;21.66;26.96
62524;BME280;53689;56.878;60.672;2022-11-15T04:11:32;96078.00;;;21.20;27.45
62524;BME280;53689;56.878;60.672;2022-11-15T04:14:19;96073.00;;;21.51;27.93
62524;BME280;53689;56.878;60.672;2022-11-15T04:17:05;96087.09;;;21.58;26.79
62524;BME280;53689;56.878;60.672;2022-11-15T04:19:51;96084.56;;;21.52;26.81
62524;BME280;53689;56.878;60.672;2022-11-15T04:22:36;96086.72;;;21.49;24.79
62524;BME280;53689;56.878;60.672;2022-11-15T04:25:22;96082.94;;;21.51;24.84
62524;BME280;53689;56.878;60.672;2022-11-15T04:28:14;96090.47;;;21.48;24.51
62524;BME280;53689;56.878;60.672;2022-11-15T04:31:01;96089.41;;;21.49;26.09
62524;BME280;53689;56.878;60.672;2022-11-15T04:33:47;96089.97;;;21.52;25.75
62524;BME280;53689;56.878;60.672;2022-11-15T04:36:34;96096.41;;;21.51;25.59
62524;BME280;53689;56.878;60.672;2022-11-15T04:39:20;96104.00;;;21.54;23.88
62524;BME280;53689;56.878;60.672;2022-11-15T04:42:07;96101.56;;;21.52;25.15
62524;BME280;53689;56.878;60.672;2022-11-15T04:44:53;96103.00;;;21.60;26.99
62524;BME280;53689;56.878;60.672;2022-11-15T04:47:43;96110.00;;;21.61;26.60
62524;BME280;53689;56.878;60.672;2022-11-15T04:50:29;96116.97;;;21.57;25.44
62524;BME280;53689;56.878;60.672;2022-11-15T04:53:15;96111.03;;;21.55;25.82
62524;BME280;53689;56.878;60.672;2022-11-15T04:56:01;96114.03;;;21.58;25.23
62524;BME280;53689;56.878;60.672;2022-11-15T04:58:48;96119.16;;;21.60;25.00
62524;BME280;53689;56.878;60.672;2022-11-15T05:01:34;96122.09;;;21.58;26.39
62524;BME280;53689;56.878;60.672;2022-11-15T05:04:29;96123.47;;;21.61;27.06
62524;BME280;53689;56.878;60.672;2022-11-15T05:07:16;96129.91;;;21.60;27.00
62524;BME280;53689;56.878;60.672;2022-11-15T05:10:02;96127.22;;;21.60;27.08
62524;BME280;53689;56.878;60.672;2022-11-15T05:12:48;96124.06;;;21.63;26.71
62524;BME280;53689;56.878;60.672;2022-11-15T05:15:34;96133.16;;;21.62;25.86
62524;BME280;53689;56.878;60.672;2022-11-15T05:18:19;96132.59;;;21.60;26.65
62524;BME280;53689;56.878;60.672;2022-11-15T05:21:10;96136.94;;;21.61;27.36
62524;BME280;53689;56.878;60.672;2022-11-15T05:23:57;96140.22;;;21.63;26.56
62524;BME280;53689;56.878;60.672;2022-11-15T05:26:42;96134.81;;;21.63;25.06
62524;BME280;53689;56.878;60.672;2022-11-15T05:29:28;96133.03;;;21.52;27.27
62524;BME280;53689;56.878;60.672;2022-11-15T05:32:14;96140.63;;;21.55;26.99
62524;BME280;53689;56.878;60.672;2022-11-15T05:35:02;96143.06;;;21.56;25.05
62524;BME280;53689;56.878;60.672;2022-11-15T05:37:49;96146.81;;;21.55;25.47
62524;BME280;53689;56.878;60.672;2022-11-15T05:40:35;96161.44;;;21.59;25.92
62524;BME280;53689;56.878;60.672;2022-11-15T05:43:22;96158.16;;;21.57;24.45
62524;BME280;53689;56.878;60.672;2022-11-15T05:46:09;96164.91;;;21.60;26.06
62524;BME280;53689;56.878;60.672;2022-11-15T05:48:56;96166.41;;;21.51;25.51
62524;BME280;53689;56.878;60.672;2022-11-15T05:51:45;96166.50;;;21.56;27.57
62524;BME280;53689;56.878;60.672;2022-11-15T05:54:36;96169.41;;;21.54;26.30
62524;BME280;53689;56.878;60.672;2022-11-15T05:57:22;96175.13;;;21.58;26.34
62524;BME280;53689;56.878;60.672;2022-11-15T06:00:10;96176.75;;;21.59;24.28
62524;BME280;53689;56.878;60.672;2022-11-15T06:02:56;96186.72;;;21.58;25.73
62524;BME280;53689;56.878;60.672;2022-11-15T06:05:42;96198.13;;;21.66;27.80
62524;BME280;53689;56.878;60.672;2022-11-15T06:08:27;96189.91;;;21.55;25.61
62524;BME280;53689;56.878;60.672;2022-11-15T06:11:15;96200.75;;;21.60;26.66
62524;BME280;53689;56.878;60.672;2022-11-15T06:14:02;96200.34;;;21.52;27.52
62524;BME280;53689;56.878;60.672;2022-11-15T06:16:48;96191.28;;;21.58;27.69
62524;BME280;53689;56.878;60.672;2022-11-15T06:19:34;96200.75;;;21.60;25.36
62524;BME280;53689;56.878;60.672;2022-11-15T06:22:20;96197.78;;;21.62;26.54
62524;BME280;53689;56.878;60.672;2022-11-15T06:25:06;96199.75;;;21.67;25.38
62524;BME280;53689;56.878;60.672;2022-11-15T06:27:55;96196.25;;;21.66;26.84
62524;BME280;53689;56.878;60.672;2022-11-15T06:30:41;96202.38;;;21.61;24.09
62524;BME280;53689;56.878;60.672;2022-11-15T06:33:27;96213.19;;;21.67;26.29
62524;BME280;53689;56.878;60.672;2022-11-15T06:36:13;96211.56;;;21.66;24.63
62524;BME280;53689;56.878;60.672;2022-11-15T06:39:02;96205.97;;;21.67;23.48
62524;BME280;53689;56.878;60.672;2022-11-15T06:41:48;96218.03;;;21.65;24.56
62524;BME280;53689;56.878;60.672;2022-11-15T06:44:36;96211.69;;;21.54;24.46
62524;BME280;53689;56.878;60.672;2022-11-15T06:47:22;96215.00;;;21.61;24.70
62524;BME280;53689;56.878;60.672;2022-11-15T06:50:09;96216.75;;;21.67;24.88
62524;BME280;53689;56.878;60.672;2022-11-15T06:52:55;96222.16;;;21.67;23.87
62524;BME280;53689;56.878;60.672;2022-11-15T06:55:45;96223.53;;;21.70;24.81
62524;BME280;53689;56.878;60.672;2022-11-15T06:58:40;96222.47;;;21.71;24.47
62524;BME280;53689;56.878;60.672;2022-11-15T07:01:27;96228.25;;;21.62;24.83
62524;BME280;53689;56.878;60.672;2022-11-15T07:04:13;96230.44;;;21.66;25.31
62524;BME280;53689;56.878;60.672;2022-11-15T07:06:59;96223.53;;;21.70;25.44
62524;BME280;53689;56.878;60.672;2022-11-15T07:09:46;96223.91;;;21.79;24.97
62524;BME280;53689;56.878;60.672;2022-11-15T07:12:31;96224.22;;;21.82;25.94
62524;BME280;53689;56.878;60.672;2022-11-15T07:15:21;96220.66;;;21.76;26.18
62524;BME280;53689;56.878;60.672;2022-11-15T07:18:09;96226.19;;;21.87;26.02
62524;BME280;53689;56.878;60.672;2022-11-15T07:20:55;96232.38;;;21.87;25.99
62524;BME280;53689;56.878;60.672;2022-11-15T07:23:42;96231.56;;;21.87;25.82
62524;BME280;53689;56.878;60.672;2022-11-15T07:26:28;96229.94;;;21.86;25.34
62524;BME280;53689;56.878;60.672;2022-11-15T07:29:14;96233.13;;;21.83;25.21
62524;BME280;53689;56.878;60.672;2022-11-15T07:31:59;96238.00;;;21.86;24.86
62524;BME280;53689;56.878;60.672;2022-11-15T07:34:46;96233.94;;;21.83;25.58
62524;BME280;53689;56.878;60.672;2022-11-15T07:37:32;96241.22;;;21.83;25.12
62524;BME280;53689;56.878;60.672;2022-11-15T07:40:18;96251.03;;;21.72;24.71
62524;BME280;53689;56.878;60.672;2022-11-15T07:43:05;96254.59;;;21.78;25.03
62524;BME280;53689;56.878;60.672;2022-11-15T07:45:52;96253.81;;;21.77;25.68
62524;BME280;53689;56.878;60.672;2022-11-15T07:48:43;96255.66;;;21.76;24.87
62524;BME280;53689;56.878;60.672;2022-11-15T07:51:31;96254.69;;;21.83;24.74
62524;BME280;53689;56.878;60.672;2022-11-15T07:54:17;96249.84;;;21.85;25.83
62524;BME280;53689;56.878;60.672;2022-11-15T07:57:03;96248.97;;;21.79;26.06
62524;BME280;53689;56.878;60.672;2022-11-15T07:59:52;96245.72;;;21.77;26.60
62524;BME280;53689;56.878;60.672;2022-11-15T08:02:39;96250.84;;;21.79;25.88
62524;BME280;53689;56.878;60.672;2022-11-15T08:05:25;96259.00;;;21.84;26.30
62524;BME280;53689;56.878;60.672;2022-11-15T08:08:12;96259.16;;;21.60;24.96
62524;BME280;53689;56.878;60.672;2022-11-15T08:10:59;96267.88;;;21.84;24.81
62524;BME280;53689;56.878;60.672;2022-11-15T08:13:45;96271.41;;;21.85;25.24
62524;BME280;53689;56.878;60.672;2022-11-15T08:16:32;96270.25;;;21.81;25.26
62524;BME280;53689;56.878;60.672;2022-11-15T08:19:18;96270.59;;;21.84;25.40
62524;BME280;53689;56.878;60.672;2022-11-15T08:22:04;96272.38;;;21.79;25.09
62524;BME280;53689;56.878;60.672;2022-11-15T08:24:52;96277.88;;;21.84;24.66
62524;BME280;53689;56.878;60.672;2022-11-15T08:27:39;96274.66;;;21.87;24.26
62524;BME280;53689;56.878;60.672;2022-11-15T08:30:24;96276.25;;;21.83;24.22
62524;BME280;53689;56.878;60.672;2022-11-15T08:33:12;96279.72;;;21.83;24.38
62524;BME280;53689;56.878;60.672;2022-11-15T08:35:59;96282.41;;;21.83;23.90
62524;BME280;53689;56.878;60.672;2022-11-15T08:38:45;96293.75;;;21.85;22.86
62524;BME280;53689;56.878;60.672;2022-11-15T08:41:34;96290.25;;;21.85;24.54
62524;BME280;53689;56.878;60.672;2022-11-15T08:44:22;96298.03;;;21.81;23.98
62524;BME280;53689;56.878;60.672;2022-11-15T08:47:10;96300.16;;;21.79;26.49
62524;BME280;53689;56.878;60.672;2022-11-15T08:49:56;96309.91;;;21.85;25.55
62524;BME280;53689;56.878;60.672;2022-11-15T08:52:42;96312.53;;;21.63;23.96
62524;BME280;53689;56.878;60.672;2022-11-15T08:55:28;96315.47;;;21.79;24.25
62524;BME280;53689;56.878;60.672;2022-11-15T08:58:15;96317.44;;;21.83;24.44
62524;BME280;53689;56.878;60.672;2022-11-15T09:01:02;96321.94;;;21.78;23.92
62524;BME280;53689;56.878;60.672;2022-11-15T09:03:48;96319.91;;;21.85;23.95
62524;BME280;53689;56.878;60.672;2022-11-15T09:06:36;96316.50;;;21.72;23.87
62524;BME280;53689;56.878;60.672;2022-11-15T09:09:27;96317.06;;;21.74;23.17
62524;BME280;53689;56.878;60.672;2022-11-15T09:12:13;96322.16;;;21.76;22.97
62524;BME280;53689;56.878;60.672;2022-11-15T09:15:00;96326.59;;;21.82;23.45
62524;BME280;53689;56.878;60.672;2022-11-15T09:17:46;96335.56;;;21.88;24.50
62524;BME280;53689;56.878;60.672;2022-11-15T09:20:32;96330.75;;;21.73;24.79
62524;BME280;53689;56.878;60.672;2022-11-15T09:23:18;96331.97;;;21.82;24.37
62524;BME280;53689;56.878;60.672;2022-11-15T09:26:05;96346.44;;;21.93;24.53
62524;BME280;53689;56.878;60.672;2022-11-15T09:28:51;96339.41;;;21.92;23.54
62524;BME280;53689;56.878;60.672;2022-11-15T09:31:38;96346.09;;;21.89;25.89
62524;BME280;53689;56.878;60.672;2022-11-15T09:34:24;96349.19;;;21.81;25.07
62524;BME280;53689;56.878;60.672;2022-11-15T09:37:10;96350.03;;;21.82;24.73
62524;BME280;53689;56.878;60.672;2022-11-15T09:39:56;96359.56;;;21.89;24.41
62524;BME280;53689;56.878;60.672;2022-11-15T09:42:58;96354.97;;;21.90;24.59
62524;BME280;53689;56.878;60.672;2022-11-15T09:45:53;96357.44;;;21.92;24.63
62524;BME280;53689;56.878;60.672;2022-11-15T09:48:59;96365.75;;;21.90;23.88
62524;BME280;53689;56.878;60.672;2022-11-15T09:51:49;96370.66;;;21.93;24.35
62524;BME280;53689;56.878;60.672;2022-11-15T09:54:25;96376.06;;;21.93;24.01
62524;BME280;53689;56.878;60.672;2022-11-15T09:57:15;96374.16;;;21.94;23.76
62524;BME280;53689;56.878;60.672;2022-11-15T10:00:04;96373.19;;;22.00;23.90
62524;BME280;53689;56.878;60.672;2022-11-15T10:03:10;96379.38;;;22.00;23.02
62524;BME280;53689;56.878;60.672;2022-11-15T10:05:41;96380.78;;;22.03;23.90
62524;BME280;53689;56.878;60.672;2022-11-15T10:08:22;96381.69;;;21.92;23.96
62524;BME280;53689;56.878;60.672;2022-11-15T10:10:55;96388.47;;;21.94;23.91
62524;BME280;53689;56.878;60.672;2022-11-15T10:13:45;96390.75;;;22.02;23.89
62524;BME280;53689;56.878;60.672;2022-11-15T10:16:30;96396.16;;;22.02;24.04
62524;BME280;53689;56.878;60.672;2022-11-15T10:19:05;96392.38;;;22.03;24.16
62524;BME280;53689;56.878;60.672;2022-11-15T10:21:42;96396.28;;;21.96;23.82
62524;BME280;53689;56.878;60.672;2022-11-15T10:24:19;96400.38;;;21.98;23.25
62524;BME280;53689;56.878;60.672;2022-11-15T10:26:47;96398.75;;;21.80;23.48
62524;BME280;53689;56.878;60.672;2022-11-15T10:29:19;96398.91;;;21.90;23.12
62524;BME280;53689;56.878;60.672;2022-11-15T10:31:53;96401.84;;;21.89;23.58
62524;BME280;53689;56.878;60.672;2022-11-15T10:34:22;96406.91;;;21.85;24.09
62524;BME280;53689;56.878;60.672;2022-11-15T10:36:56;96400.06;;;21.78;23.29
62524;BME280;53689;56.878;60.672;2022-11-15T10:39:24;96405.44;;;21.95;23.78
62524;BME280;53689;56.878;60.672;2022-11-15T10:41:52;96413.53;;;21.78;24.11
62524;BME280;53689;56.878;60.672;2022-11-15T10:44:23;96405.03;;;21.86;23.26
62524;BME280;53689;56.878;60.672;2022-11-15T10:47:06;96415.97;;;21.96;23.68
62524;BME280;53689;56.878;60.672;2022-11-15T10:49:57;96424.97;;;21.85;23.97
62524;BME280;53689;56.878;60.672;2022-11-15T10:52:27;96409.91;;;21.89;23.92
62524;BME280;53689;56.878;60.672;2022-11-15T10:55:01;96425.25;;;21.71;24.93
62524;BME280;53689;56.878;60.672;2022-11-15T10:57:31;96422.91;;;21.75;24.20
62524;BME280;53689;56.878;60.672;2022-11-15T11:00:02;96427.47;;;21.74;25.08
62524;BME280;53689;56.878;60.672;2022-11-15T11:02:33;96433.53;;;21.82;24.54
62524;BME280;53689;56.878;60.672;2022-11-15T11:05:03;96435.63;;;21.80;24.44
62524;BME280;53689;56.878;60.672;2022-11-15T11:07:34;96436.78;;;21.84;24.40
62524;BME280;53689;56.878;60.672;2022-11-15T11:10:05;96434.34;;;21.82;23.88
62524;BME280;53689;56.878;60.672;2022-11-15T11:12:53;96436.22;;;21.82;24.29
62524;BME280;53689;56.878;60.672;2022-11-15T11:15:22;96442.97;;;21.84;23.79
62524;BME280;53689;56.878;60.672;2022-11-15T11:18:02;96451.56;;;21.81;23.78
62524;BME280;53689;56.878;60.672;2022-11-15T11:20:36;96447.25;;;21.80;23.72
62524;BME280;53689;56.878;60.672;2022-11-15T11:23:27;96455.88;;;21.82;24.47
62524;BME280;53689;56.878;60.672;2022-11-15T11:26:10;96448.63;;;21.83;23.82
62524;BME280;53689;56.878;60.672;2022-11-15T11:29:01;96459.41;;;21.83;23.67
62524;BME280;53689;56.878;60.672;2022-11-15T11:31:38;96457.50;;;21.83;24.34
62524;BME280;53689;56.878;60.672;2022-11-15T11:34:14;96455.09;;;21.82;24.42
62524;BME280;53689;56.878;60.672;2022-11-15T11:36:51;96446.41;;;21.80;24.13
62524;BME280;53689;56.878;60.672;2022-11-15T11:39:28;96455.56;;;21.79;23.87
62524;BME280;53689;56.878;60.672;2022-11-15T11:42:03;96464.47;;;21.79;24.06
62524;BME280;53689;56.878;60.672;2022-11-15T11:44:43;96470.41;;;21.81;24.67
62524;BME280;53689;56.878;60.672;2022-11-15T11:47:21;96470.75;;;21.85;24.22
62524;BME280;53689;56.878;60.672;2022-11-15T11:49:51;96469.13;;;21.84;23.79
62524;BME280;53689;56.878;60.672;2022-11-15T11:52:24;96468.63;;;21.87;24.32
62524;BME280;53689;56.878;60.672;2022-11-15T11:55:01;96463.72;;;21.84;24.31
62524;BME280;53689;56.878;60.672;2022-11-15T11:57:35;96470.75;;;21.85;24.44
62524;BME280;53689;56.878;60.672;2022-11-15T12:00:16;96472.38;;;21.86;24.48
62524;BME280;53689;56.878;60.672;2022-11-15T12:02:48;96477.78;;;21.86;24.89
62524;BME280;53689;56.878;60.672;2022-11-15T12:05:26;96484.78;;;21.87;24.34
62524;BME280;53689;56.878;60.672;2022-11-15T12:08:03;96487.16;;;21.83;23.30
62524;BME280;53689;56.878;60.672;2022-11-15T12:10:34;96481.16;;;20.58;23.07
62524;BME280;53689;56.878;60.672;2022-11-15T12:13:06;96487.31;;;21.35;22.75
62524;BME280;53689;56.878;60.672;2022-11-15T12:15:40;96484.50;;;21.71;24.48
62524;BME280;53689;56.878;60.672;2022-11-15T12:18:13;96491.22;;;21.57;22.38
62524;BME280;53689;56.878;60.672;2022-11-15T12:20:51;96491.56;;;21.72;24.72
62524;BME280;53689;56.878;60.672;2022-11-15T12:23:24;96492.47;;;21.78;23.98
62524;BME280;53689;56.878;60.672;2022-11-15T12:25:57;96503.47;;;21.76;24.58
62524;BME280;53689;56.878;60.672;2022-11-15T12:28:34;96501.91;;;21.81;23.99
62524;BME280;53689;56.878;60.672;2022-11-15T12:31:13;96505.66;;;21.80;24.24
62524;BME280;53689;56.878;60.672;2022-11-15T12:33:44;96499.81;;;21.83;23.33
62524;BME280;53689;56.878;60.672;2022-11-15T12:36:32;96506.72;;;21.79;24.00
62524;BME280;53689;56.878;60.672;2022-11-15T12:39:01;96506.28;;;21.82;22.83
62524;BME280;53689;56.878;60.672;2022-11-15T12:41:31;96517.34;;;21.85;24.01
62524;BME280;53689;56.878;60.672;2022-11-15T12:43:59;96515.00;;;21.89;23.94
62524;BME280;53689;56.878;60.672;2022-11-15T12:47:02;96511.22;;;21.90;24.17
62524;BME280;53689;56.878;60.672;2022-11-15T12:49:44;96508.53;;;21.90;24.85
62524;BME280;53689;56.878;60.672;2022-11-15T12:52:13;96520.16;;;21.90;24.75
62524;BME280;53689;56.878;60.672;2022-11-15T12:55:00;96520.97;;;21.91;24.87
62524;BME280;53689;56.878;60.672;2022-11-15T12:57:35;96532.22;;;21.88;25.21
62524;BME280;53689;56.878;60.672;2022-11-15T13:03:24;96528.72;;;21.87;24.88
62524;BME280;53689;56.878;60.672;2022-11-15T13:05:57;96522.50;;;21.87;25.25
62524;BME280;53689;56.878;60.672;2022-11-15T13:08:44;96532.00;;;21.89;25.08
62524;BME280;53689;56.878;60.672;2022-11-15T13:14:44;96534.91;;;21.88;25.49
62524;BME280;53689;56.878;60.672;2022-11-15T13:17:30;96539.25;;;21.89;25.23
62524;BME280;53689;56.878;60.672;2022-11-15T13:20:01;96537.59;;;21.88;24.88
62524;BME280;53689;56.878;60.672;2022-11-15T13:22:38;96541.94;;;21.89;25.53
62524;BME280;53689;56.878;60.672;2022-11-15T13:25:15;96549.78;;;21.90;25.37
62524;BME280;53689;56.878;60.672;2022-11-15T13:27:43;96553.78;;;21.88;25.21
62524;BME280;53689;56.878;60.672;2022-11-15T13:30:20;96545.47;;;21.89;25.74
62524;BME280;53689;56.878;60.672;2022-11-15T13:32:48;96550.28;;;21.87;25.37
62524;BME280;53689;56.878;60.672;2022-11-15T13:35:20;96555.41;;;21.89;25.11
62524;BME280;53689;56.878;60.672;2022-11-15T13:37:48;96555.66;;;21.87;25.27
62524;BME280;53689;56.878;60.672;2022-11-15T13:40:24;96555.66;;;21.87;25.78
62524;BME280;53689;56.878;60.672;2022-11-15T13:42:51;96549.44;;;21.87;25.91
62524;BME280;53689;56.878;60.672;2022-11-15T13:45:20;96550.28;;;21.87;24.94
62524;BME280;53689;56.878;60.672;2022-11-15T13:47:53;96552.97;;;21.87;24.81
62524;BME280;53689;56.878;60.672;2022-11-15T13:50:23;96558.09;;;21.89;25.79
62524;BME280;53689;56.878;60.672;2022-11-15T13:52:53;96560.22;;;21.87;25.44
62524;BME280;53689;56.878;60.672;2022-11-15T13:55:22;96564.81;;;21.86;25.28
62524;BME280;53689;56.878;60.672;2022-11-15T13:57:51;96554.84;;;21.87;25.43
62524;BME280;53689;56.878;60.672;2022-11-15T14:00:30;96557.75;;;21.85;24.61
62524;BME280;53689;56.878;60.672;2022-11-15T14:03:07;96564.81;;;21.86;25.02
62524;BME280;53689;56.878;60.672;2022-11-15T14:05:38;96558.59;;;21.86;25.64
62524;BME280;53689;56.878;60.672;2022-11-15T14:08:22;96560.22;;;21.87;25.47
62524;BME280;53689;56.878;60.672;2022-11-15T14:11:06;96569.38;;;21.86;25.67
62524;BME280;53689;56.878;60.672;2022-11-15T14:13:34;96560.22;;;21.87;25.44
62524;BME280;53689;56.878;60.672;2022-11-15T14:16:20;96573.69;;;21.87;25.69
62524;BME280;53689;56.878;60.672;2022-11-15T14:18:49;96568.78;;;21.84;25.58
62524;BME280;53689;56.878;60.672;2022-11-15T14:21:19;96570.31;;;21.80;25.06
62524;BME280;53689;56.878;60.672;2022-11-15T14:23:46;96580.16;;;21.86;25.20